createdAt,value
2019-03-31T00:01:41.583Z,89.20
2019-03-31T00:04:11.538Z,94.17
2019-03-31T00:06:43.844Z,99.00
2019-03-31T00:09:14.153Z,96.63
2019-03-31T00:11:46.002Z,100.80
2019-03-31T00:14:16.317Z,116.20
2019-03-31T00:16:46.294Z,111.67
2019-03-31T00:19:18.148Z,105.67
2019-03-31T00:21:48.154Z,102.73
2019-03-31T00:24:19.697Z,103.33
2019-03-31T00:26:50.839Z,107.90
2019-03-31T00:29:21.139Z,104.27
2019-03-31T00:31:51.054Z,102.70
2019-03-31T00:34:21.154Z,104.27
2019-03-31T00:36:51.204Z,103.93
2019-03-31T00:39:22.424Z,107.90
2019-03-31T00:41:52.480Z,101.73
2019-03-31T00:44:22.449Z,101.67
2019-03-31T00:46:54.273Z,97.93
2019-03-31T00:49:24.190Z,105.93
2019-03-31T00:51:54.225Z,104.47
2019-03-31T00:54:27.781Z,96.67
2019-03-31T00:56:57.815Z,109.30
2019-03-31T00:59:27.943Z,107.60
2019-03-31T01:02:01.783Z,110.20
2019-03-31T01:04:33.491Z,98.23
2019-03-31T01:07:04.412Z,105.27
2019-03-31T01:09:35.240Z,110.03
2019-03-31T01:12:06.026Z,109.20
2019-03-31T01:14:36.480Z,109.67
2019-03-31T01:17:09.996Z,118.20
2019-03-31T01:19:40.357Z,107.63
2019-03-31T01:22:11.659Z,105.33
2019-03-31T01:24:43.041Z,117.03
2019-03-31T01:27:13.866Z,116.10
2019-03-31T01:29:43.830Z,115.20
2019-03-31T01:32:13.859Z,114.90
2019-03-31T01:34:43.782Z,109.13
2019-03-31T01:37:13.758Z,111.37
2019-03-31T01:39:43.836Z,109.73
2019-03-31T01:42:13.858Z,109.27
2019-03-31T01:44:43.871Z,107.83
2019-03-31T01:47:13.805Z,118.27
2019-03-31T01:49:43.808Z,112.47
2019-03-31T01:52:15.313Z,118.30
2019-03-31T01:54:45.326Z,118.00
2019-03-31T01:57:15.315Z,113.13
2019-03-31T01:59:45.226Z,107.37
2019-03-31T02:02:25.490Z,111.37
2019-03-31T02:04:56.160Z,101.27
2019-03-31T02:07:26.061Z,101.80
2019-03-31T02:09:56.357Z,97.43
2019-03-31T02:12:26.258Z,102.20
2019-03-31T02:14:57.711Z,100.13
2019-03-31T02:17:29.562Z,106.53
2019-03-31T02:19:59.552Z,98.87
2019-03-31T02:22:29.476Z,102.43
2019-03-31T02:24:59.518Z,96.90
2019-03-31T02:27:29.383Z,106.90
2019-03-31T02:30:01.114Z,100.73
2019-03-31T02:32:31.117Z,102.50
2019-03-31T02:35:01.169Z,104.83
2019-03-31T02:37:32.781Z,101.47
2019-03-31T02:40:03.318Z,99.50
2019-03-31T02:42:33.338Z,98.57
2019-03-31T02:45:04.705Z,109.07
2019-03-31T02:47:34.742Z,99.43
2019-03-31T02:50:06.498Z,100.23
2019-03-31T02:52:36.403Z,102.40
2019-03-31T02:55:06.752Z,101.53
2019-03-31T02:57:37.277Z,102.47
2019-03-31T03:00:07.491Z,102.67
2019-03-31T03:02:42.467Z,96.50
2019-03-31T03:05:19.699Z,104.33
2019-03-31T03:07:47.240Z,101.93
2019-03-31T03:10:18.696Z,103.90
2019-03-31T03:12:51.593Z,99.63
2019-03-31T03:15:28.377Z,102.27
2019-03-31T03:17:58.400Z,102.13
2019-03-31T03:20:28.302Z,101.23
2019-03-31T03:22:58.278Z,99.70
2019-03-31T03:25:28.243Z,103.20
2019-03-31T03:27:58.197Z,100.17
2019-03-31T03:30:28.153Z,99.83
2019-03-31T03:33:14.601Z,98.30
2019-03-31T03:35:30.246Z,96.60
2019-03-31T03:38:00.257Z,93.33
2019-03-31T03:40:30.394Z,96.47
2019-03-31T03:43:02.040Z,100.90
2019-03-31T03:45:32.044Z,96.80
2019-03-31T03:48:02.460Z,101.97
2019-03-31T03:50:32.654Z,103.90
2019-03-31T03:53:02.677Z,99.63
2019-03-31T03:55:32.784Z,91.70
2019-03-31T03:58:02.887Z,109.27
2019-03-31T04:00:33.015Z,102.93
2019-03-31T04:03:03.008Z,101.00
2019-03-31T04:05:33.037Z,106.70
2019-03-31T04:08:04.218Z,102.53
2019-03-31T04:11:15.012Z,99.83
2019-03-31T04:13:45.106Z,102.07
2019-03-31T04:16:16.399Z,109.53
2019-03-31T04:18:46.705Z,109.13
2019-03-31T04:21:16.764Z,103.80
2019-03-31T04:23:46.768Z,113.17
2019-03-31T04:26:16.750Z,110.97
2019-03-31T04:28:46.949Z,107.60
2019-03-31T04:31:17.265Z,111.07
2019-03-31T04:33:52.163Z,106.53
2019-03-31T04:36:19.545Z,110.63
2019-03-31T04:38:49.737Z,112.90
2019-03-31T04:41:19.924Z,112.17
2019-03-31T04:43:49.930Z,112.83
2019-03-31T04:46:19.953Z,105.43
2019-03-31T04:48:49.989Z,116.67
2019-03-31T04:51:19.924Z,112.63
2019-03-31T04:53:49.920Z,118.23
2019-03-31T04:56:20.958Z,110.33
2019-03-31T04:58:51.001Z,114.80
2019-03-31T05:01:22.312Z,116.70
2019-03-31T05:04:04.381Z,114.40
2019-03-31T05:06:25.988Z,107.73
2019-03-31T05:08:55.985Z,104.10
2019-03-31T05:11:26.520Z,94.60
2019-03-31T05:13:56.438Z,93.47
2019-03-31T05:16:27.829Z,94.73
2019-03-31T05:18:57.796Z,98.00
2019-03-31T05:21:27.873Z,97.50
2019-03-31T05:23:57.889Z,100.13
2019-03-31T05:26:27.852Z,97.80
2019-03-31T05:28:57.756Z,99.67
2019-03-31T05:31:27.738Z,93.20
2019-03-31T05:33:57.764Z,94.20
2019-03-31T05:36:27.691Z,91.90
2019-03-31T05:38:57.611Z,96.77
2019-03-31T05:41:27.734Z,85.07
2019-03-31T05:44:05.462Z,89.93
2019-03-31T05:46:29.351Z,87.33
2019-03-31T05:48:59.320Z,84.10
2019-03-31T05:51:29.297Z,80.93
2019-03-31T05:53:59.157Z,70.00
2019-03-31T05:56:29.425Z,69.47
2019-03-31T05:58:59.519Z,68.87
2019-03-31T06:01:29.510Z,67.13
2019-03-31T06:03:59.561Z,67.87
2019-03-31T06:06:29.511Z,57.83
2019-03-31T06:08:59.407Z,59.80
2019-03-31T06:11:29.374Z,58.77
2019-03-31T06:13:59.814Z,60.37
2019-03-31T06:16:29.742Z,66.70
2019-03-31T06:18:59.819Z,70.50
2019-03-31T06:21:29.762Z,66.80
2019-03-31T06:23:59.674Z,65.33
2019-03-31T06:26:29.626Z,59.40
2019-03-31T06:28:59.540Z,64.37
2019-03-31T06:31:29.517Z,61.40
2019-03-31T06:33:59.461Z,54.57
2019-03-31T06:36:29.368Z,59.27
2019-03-31T06:38:59.287Z,54.20
2019-03-31T06:41:29.617Z,53.23
2019-03-31T06:43:59.504Z,54.40
2019-03-31T06:46:29.452Z,47.63
2019-03-31T06:48:59.479Z,45.87
2019-03-31T06:51:29.469Z,51.23
2019-03-31T06:53:59.369Z,48.50
2019-03-31T06:56:29.433Z,51.60
2019-03-31T06:58:59.455Z,41.70
2019-03-31T07:01:29.451Z,40.50
2019-03-31T07:03:59.516Z,44.80
2019-03-31T07:06:29.530Z,42.67
2019-03-31T07:08:59.553Z,44.37
2019-03-31T07:11:29.511Z,42.60
2019-03-31T07:13:59.500Z,40.03
2019-03-31T07:16:30.166Z,40.37
2019-03-31T07:19:00.134Z,36.47
2019-03-31T07:21:30.148Z,31.00
2019-03-31T07:24:00.167Z,37.40
2019-03-31T07:26:31.967Z,35.17
2019-03-31T07:29:02.023Z,38.20
2019-03-31T07:31:33.821Z,36.43
2019-03-31T07:34:05.948Z,21.33
2019-03-31T07:36:37.150Z,34.83
2019-03-31T07:39:08.145Z,32.50
2019-03-31T07:41:38.194Z,30.63
2019-03-31T07:44:08.370Z,31.23
2019-03-31T07:46:39.713Z,33.53
2019-03-31T07:49:11.097Z,29.40
2019-03-31T07:51:41.093Z,28.37
2019-03-31T07:54:11.185Z,20.83
2019-03-31T07:56:41.637Z,29.37
2019-03-31T07:59:11.688Z,27.60
2019-03-31T08:01:41.666Z,19.77
2019-03-31T08:04:11.625Z,30.27
2019-03-31T08:06:41.724Z,29.20
2019-03-31T08:09:11.692Z,20.47
2019-03-31T08:11:42.089Z,29.33
2019-03-31T08:14:12.139Z,22.93
2019-03-31T08:16:42.632Z,25.83
2019-03-31T08:19:12.581Z,23.07
2019-03-31T08:21:42.612Z,20.00
2019-03-31T08:24:14.104Z,26.57
2019-03-31T08:26:44.099Z,28.63
2019-03-31T08:29:14.005Z,29.60
2019-03-31T08:31:43.929Z,25.73
2019-03-31T08:34:13.935Z,20.73
2019-03-31T08:36:43.956Z,25.23
2019-03-31T08:39:13.919Z,26.47
2019-03-31T08:41:43.852Z,28.47
2019-03-31T08:44:13.766Z,21.57
2019-03-31T08:46:43.717Z,29.47
2019-03-31T08:49:15.150Z,26.33
2019-03-31T08:51:45.193Z,23.67
2019-03-31T08:54:17.106Z,31.63
2019-03-31T08:56:47.579Z,28.37
2019-03-31T08:59:17.855Z,27.67
2019-03-31T09:01:49.074Z,20.97
2019-03-31T09:04:19.040Z,34.20
2019-03-31T09:06:48.986Z,28.27
2019-03-31T09:09:20.266Z,31.77
2019-03-31T09:11:50.270Z,26.57
2019-03-31T09:14:20.236Z,26.80
2019-03-31T09:16:50.378Z,21.30
2019-03-31T09:19:21.137Z,24.83
2019-03-31T09:21:51.046Z,33.80
2019-03-31T09:24:22.847Z,32.87
2019-03-31T09:26:52.794Z,22.73
2019-03-31T09:29:23.997Z,27.27
2019-03-31T09:31:54.159Z,31.57
2019-03-31T09:34:24.593Z,23.73
2019-03-31T09:36:55.772Z,21.43
2019-03-31T09:39:25.845Z,16.90
2019-03-31T09:41:55.818Z,30.83
2019-03-31T09:44:25.862Z,27.23
2019-03-31T09:46:55.866Z,24.37
2019-03-31T09:49:26.188Z,19.07
2019-03-31T09:51:56.177Z,31.50
2019-03-31T09:54:26.160Z,30.13
2019-03-31T09:56:56.212Z,25.13
2019-03-31T09:59:28.273Z,20.67
2019-03-31T10:01:58.399Z,16.53
2019-03-31T10:04:29.863Z,34.93
2019-03-31T10:07:01.100Z,32.37
2019-03-31T10:09:32.146Z,23.77
2019-03-31T10:12:02.180Z,27.00
2019-03-31T10:14:32.143Z,24.17
2019-03-31T10:17:02.128Z,39.50
2019-03-31T10:19:34.737Z,34.60
2019-03-31T10:22:04.780Z,23.03
2019-03-31T10:24:34.790Z,34.17
2019-03-31T10:27:05.989Z,35.33
2019-03-31T10:29:36.388Z,37.03
2019-03-31T10:32:07.532Z,23.63
2019-03-31T10:34:37.510Z,40.20
2019-03-31T10:37:07.620Z,30.30
2019-03-31T10:39:37.642Z,19.43
2019-03-31T10:42:07.655Z,37.90
2019-03-31T10:44:37.802Z,21.30
2019-03-31T10:47:09.282Z,37.17
2019-03-31T10:49:39.376Z,44.00
2019-03-31T10:52:10.956Z,26.40
2019-03-31T10:54:42.846Z,24.17
2019-03-31T10:57:12.831Z,34.83
2019-03-31T10:59:43.191Z,36.63
2019-03-31T11:02:13.196Z,32.37
2019-03-31T11:04:44.640Z,41.67
2019-03-31T11:07:14.861Z,30.20
2019-03-31T11:09:44.814Z,35.73
2019-03-31T11:12:14.948Z,36.43
2019-03-31T11:14:45.006Z,20.37
2019-03-31T11:17:14.989Z,42.90
2019-03-31T11:19:45.084Z,40.47
2019-03-31T11:22:39.448Z,28.30
2019-03-31T11:25:20.300Z,18.60
2019-03-31T11:27:43.916Z,20.67
2019-03-31T11:30:14.524Z,23.13
2019-03-31T11:32:44.669Z,30.43
2019-03-31T11:35:15.120Z,38.60
2019-03-31T11:37:45.304Z,40.57
2019-03-31T11:40:16.383Z,24.27
2019-03-31T11:42:48.247Z,20.77
2019-03-31T11:45:18.212Z,23.90
2019-03-31T11:47:48.213Z,31.30
2019-03-31T11:50:19.112Z,27.53
2019-03-31T11:52:49.128Z,20.97
2019-03-31T11:55:19.116Z,34.20
2019-03-31T11:57:49.292Z,36.13
2019-03-31T12:00:20.133Z,31.57
2019-03-31T12:02:50.081Z,28.70
2019-03-31T12:05:20.594Z,24.13
2019-03-31T12:07:52.508Z,33.53
2019-03-31T12:10:22.623Z,28.17
2019-03-31T12:12:52.672Z,35.83
2019-03-31T12:15:22.603Z,24.83
2019-03-31T12:17:52.521Z,31.87
2019-03-31T12:20:25.745Z,27.93
2019-03-31T12:22:56.158Z,38.47
2019-03-31T12:25:26.106Z,32.60
2019-03-31T12:27:56.263Z,33.90
2019-03-31T12:30:30.493Z,32.30
2019-03-31T12:33:00.443Z,27.93
2019-03-31T12:35:30.445Z,32.47
2019-03-31T12:38:00.602Z,31.13
2019-03-31T12:40:35.154Z,29.77
2019-03-31T12:43:05.322Z,24.33
2019-03-31T12:45:35.418Z,28.60
2019-03-31T12:48:05.404Z,32.90
2019-03-31T12:50:35.396Z,29.10
2019-03-31T12:53:05.674Z,30.07
2019-03-31T12:55:37.991Z,31.83
2019-03-31T12:58:07.905Z,32.63
2019-03-31T13:00:39.825Z,32.47
2019-03-31T13:03:11.781Z,29.63
2019-03-31T13:05:42.910Z,26.17
2019-03-31T13:08:12.947Z,40.40
2019-03-31T13:10:43.115Z,36.53
2019-03-31T13:13:14.823Z,37.77
2019-03-31T13:15:45.063Z,27.40
2019-03-31T13:18:14.999Z,38.13
2019-03-31T13:20:45.136Z,33.57
2019-03-31T13:23:16.838Z,29.63
2019-03-31T13:25:46.857Z,30.47
2019-03-31T13:28:16.807Z,26.13
2019-03-31T13:30:47.035Z,38.07
2019-03-31T13:33:17.119Z,30.17
2019-03-31T13:35:47.265Z,32.23
2019-03-31T13:38:17.308Z,35.93
2019-03-31T13:40:50.528Z,33.93
2019-03-31T13:43:20.316Z,35.90
2019-03-31T13:45:51.688Z,27.40
2019-03-31T13:48:23.182Z,26.90
2019-03-31T13:50:53.309Z,31.33
2019-03-31T13:53:23.292Z,27.17
2019-03-31T13:55:53.275Z,23.50
2019-03-31T13:58:25.558Z,27.10
2019-03-31T14:00:57.340Z,22.17
2019-03-31T14:03:27.920Z,27.20
2019-03-31T14:06:01.511Z,23.57
2019-03-31T14:08:31.521Z,28.40
2019-03-31T14:11:01.496Z,29.07
2019-03-31T14:13:32.746Z,27.83
2019-03-31T14:16:02.852Z,28.57
2019-03-31T14:18:32.771Z,26.33
2019-03-31T14:21:04.759Z,23.70
2019-03-31T14:23:45.979Z,29.73
2019-03-31T14:26:17.937Z,40.50
2019-03-31T14:28:47.978Z,31.43
2019-03-31T14:31:18.053Z,42.80
2019-03-31T14:33:48.176Z,30.10
2019-03-31T14:36:19.711Z,40.33
2019-03-31T14:38:52.798Z,37.47
2019-03-31T14:41:24.618Z,33.60
2019-03-31T14:43:54.805Z,29.87
2019-03-31T14:46:26.223Z,42.43
2019-03-31T14:48:56.242Z,50.60
2019-03-31T14:51:26.412Z,57.53
2019-03-31T14:53:58.136Z,35.80
2019-03-31T14:56:29.521Z,34.20
2019-03-31T14:59:01.121Z,33.73
2019-03-31T15:01:31.061Z,39.53
2019-03-31T15:04:01.327Z,41.43
2019-03-31T15:06:31.343Z,35.50
2019-03-31T15:09:01.540Z,34.00
2019-03-31T15:11:31.562Z,37.13
2019-03-31T15:14:01.585Z,35.17
2019-03-31T15:16:33.613Z,32.37
2019-03-31T15:19:03.664Z,30.40
2019-03-31T15:21:33.771Z,34.20
2019-03-31T15:24:04.131Z,35.67
2019-03-31T15:26:34.558Z,34.50
2019-03-31T15:29:04.777Z,33.23
2019-03-31T15:31:34.763Z,31.97
2019-03-31T15:34:04.742Z,37.37
2019-03-31T15:36:34.738Z,36.63
2019-03-31T15:39:09.203Z,48.90
2019-03-31T15:41:38.703Z,56.63
2019-03-31T15:44:09.997Z,51.17
2019-03-31T15:46:39.989Z,45.63
2019-03-31T15:49:09.920Z,52.03
2019-03-31T15:51:41.353Z,35.00
2019-03-31T15:54:11.354Z,46.00
2019-03-31T15:56:41.401Z,51.47
2019-03-31T15:59:11.805Z,53.23
2019-03-31T16:01:41.812Z,43.27
2019-03-31T16:04:11.882Z,45.83
2019-03-31T16:06:44.974Z,49.63
2019-03-31T16:09:23.391Z,47.37
2019-03-31T16:11:53.616Z,41.07
2019-03-31T16:14:17.217Z,47.00
2019-03-31T16:16:46.588Z,44.73
2019-03-31T16:19:17.819Z,43.30
2019-03-31T16:21:47.299Z,44.33
2019-03-31T16:24:20.384Z,46.87
2019-03-31T16:26:52.862Z,47.10
2019-03-31T16:29:22.508Z,48.00
2019-03-31T16:31:51.946Z,42.93
2019-03-31T16:34:21.759Z,55.17
2019-03-31T16:36:52.269Z,57.43
2019-03-31T16:39:21.648Z,47.87
2019-03-31T16:41:51.107Z,52.97
2019-03-31T16:44:20.600Z,44.40
2019-03-31T16:46:50.131Z,43.13
2019-03-31T16:49:19.789Z,41.20
2019-03-31T16:51:51.001Z,44.30
2019-03-31T16:54:20.455Z,49.17
2019-03-31T16:56:51.367Z,50.07
2019-03-31T16:59:20.762Z,44.53
2019-03-31T17:01:50.290Z,28.07
2019-03-31T17:04:19.912Z,34.47
2019-03-31T17:06:49.288Z,41.97
2019-03-31T17:09:18.681Z,46.17
2019-03-31T17:11:48.131Z,42.20
2019-03-31T17:14:18.768Z,29.47
2019-03-31T17:16:48.172Z,48.50
2019-03-31T17:19:17.874Z,34.67
2019-03-31T17:21:47.353Z,51.87
2019-03-31T17:24:16.861Z,42.33
2019-03-31T17:26:46.344Z,40.63
2019-03-31T17:29:16.206Z,42.30
2019-03-31T17:31:45.670Z,57.20
2019-03-31T17:34:15.112Z,56.43
2019-03-31T17:36:44.526Z,59.07
2019-03-31T17:39:13.971Z,56.73
2019-03-31T17:41:43.851Z,54.07
2019-03-31T17:44:13.331Z,59.30
2019-03-31T17:46:42.830Z,54.60
2019-03-31T17:49:12.399Z,50.47
2019-03-31T17:51:42.910Z,53.33
2019-03-31T17:54:12.628Z,56.20
2019-03-31T17:56:42.143Z,51.80
2019-03-31T17:59:11.720Z,49.67
2019-03-31T18:01:42.380Z,47.33
2019-03-31T18:04:30.908Z,45.07
2019-03-31T18:07:01.643Z,48.80
2019-03-31T18:09:31.034Z,41.47
2019-03-31T18:12:00.597Z,43.27
2019-03-31T18:14:30.077Z,35.50
2019-03-31T18:17:00.610Z,36.23
2019-03-31T18:19:31.393Z,37.87
2019-03-31T18:22:15.613Z,38.70
2019-03-31T18:24:32.143Z,45.03
2019-03-31T18:27:02.006Z,44.37
2019-03-31T18:29:31.404Z,40.53
2019-03-31T18:32:01.101Z,46.20
2019-03-31T18:34:30.612Z,49.00
2019-03-31T18:37:00.103Z,48.03
2019-03-31T18:39:30.566Z,51.57
2019-03-31T18:42:01.005Z,48.23
2019-03-31T18:44:30.531Z,52.67
2019-03-31T18:46:59.910Z,48.80
2019-03-31T18:49:29.377Z,54.23
2019-03-31T18:51:58.738Z,49.80
2019-03-31T18:54:33.675Z,45.10
2019-03-31T18:57:35.520Z,51.57
2019-03-31T19:00:16.580Z,60.03
2019-03-31T19:02:52.709Z,59.27
2019-03-31T19:05:32.023Z,60.33
2019-03-31T19:08:26.197Z,52.87
2019-03-31T19:11:09.743Z,56.97
2019-03-31T19:14:02.065Z,50.07
2019-03-31T19:16:47.704Z,54.80
2019-03-31T19:19:34.746Z,52.27
2019-03-31T19:22:21.570Z,48.83
2019-03-31T19:25:08.852Z,44.83
2019-03-31T19:27:58.408Z,40.73
2019-03-31T19:30:55.678Z,36.00
2019-03-31T19:33:59.857Z,32.73
2019-03-31T19:36:51.045Z,34.83
2019-03-31T19:39:51.451Z,31.03
2019-03-31T19:42:46.912Z,33.90
2019-03-31T19:45:35.336Z,33.97
2019-03-31T19:48:38.923Z,33.20
2019-03-31T19:51:27.437Z,34.67
2019-03-31T19:54:03.781Z,33.87
2019-03-31T19:56:52.212Z,34.80
2019-03-31T19:59:33.421Z,29.50
2019-03-31T20:02:25.087Z,29.73
2019-03-31T20:05:01.723Z,28.77
2019-03-31T20:07:44.982Z,22.87
2019-03-31T20:10:33.800Z,21.87
2019-03-31T20:13:16.943Z,22.10
2019-03-31T20:15:54.820Z,25.83
2019-03-31T20:18:47.072Z,25.67
2019-03-31T20:21:32.374Z,23.57
2019-03-31T20:24:26.323Z,24.20
2019-03-31T20:27:09.426Z,28.67
2019-03-31T20:30:00.748Z,28.67
2019-03-31T20:32:57.404Z,30.40
2019-03-31T20:36:01.438Z,29.60
2019-03-31T20:38:45.433Z,31.33
2019-03-31T20:41:22.682Z,30.47
2019-03-31T20:43:56.314Z,32.20
2019-03-31T20:46:27.439Z,32.83
2019-03-31T20:48:58.035Z,37.30
2019-03-31T20:51:27.448Z,34.10
2019-03-31T20:53:57.261Z,32.50
2019-03-31T20:56:26.715Z,34.33
2019-03-31T20:58:56.110Z,31.53
2019-03-31T21:01:25.816Z,33.83
2019-03-31T21:03:55.421Z,36.77
2019-03-31T21:06:24.979Z,33.57
2019-03-31T21:08:54.518Z,32.27
2019-03-31T21:11:23.950Z,35.93
2019-03-31T21:13:56.792Z,39.30
2019-03-31T21:16:24.668Z,34.23
2019-03-31T21:18:54.214Z,34.97
2019-03-31T21:21:24.826Z,52.97
2019-03-31T21:23:54.679Z,45.43
2019-03-31T21:26:25.698Z,43.30
2019-03-31T21:28:55.262Z,42.90
2019-03-31T21:31:24.763Z,41.57
2019-03-31T21:33:54.109Z,46.90
2019-03-31T21:36:23.715Z,51.57
2019-03-31T21:38:53.209Z,51.63
2019-03-31T21:41:23.764Z,47.23
2019-03-31T21:43:53.444Z,50.33
2019-03-31T21:46:23.012Z,51.20
2019-03-31T21:48:52.400Z,49.07
2019-03-31T21:51:22.932Z,59.00
2019-03-31T21:53:53.500Z,49.73
2019-03-31T21:56:23.986Z,48.57
2019-03-31T21:58:53.553Z,51.10
2019-03-31T22:01:22.959Z,47.93
2019-03-31T22:03:52.305Z,43.90
2019-03-31T22:06:21.736Z,45.00
2019-03-31T22:08:52.388Z,44.10
2019-03-31T22:11:21.960Z,51.33
2019-03-31T22:13:51.448Z,48.20
2019-03-31T22:16:22.672Z,47.30
2019-03-31T22:18:52.120Z,44.17
2019-03-31T22:21:22.614Z,45.93
2019-03-31T22:23:58.008Z,49.90
2019-03-31T22:26:23.383Z,45.10
2019-03-31T22:28:52.896Z,45.43
2019-03-31T22:31:22.686Z,46.93
2019-03-31T22:33:53.776Z,49.33
2019-03-31T22:36:23.614Z,48.73
2019-03-31T22:38:54.919Z,49.20
2019-03-31T22:41:24.389Z,46.90
2019-03-31T22:43:53.820Z,49.93
2019-03-31T22:46:23.347Z,52.07
2019-03-31T22:48:54.447Z,49.93
2019-03-31T22:51:23.883Z,54.90
2019-03-31T22:53:55.218Z,53.37
2019-03-31T22:56:24.661Z,58.43
2019-03-31T22:58:54.080Z,56.77
2019-03-31T23:01:23.519Z,59.50
2019-03-31T23:03:52.961Z,57.07
2019-03-31T23:06:22.631Z,60.63
2019-03-31T23:08:52.358Z,62.70
2019-03-31T23:11:21.808Z,58.70
2019-03-31T23:13:51.342Z,56.17
2019-03-31T23:16:20.885Z,57.93
2019-03-31T23:18:50.293Z,64.20
2019-03-31T23:21:19.808Z,67.57
2019-03-31T23:23:49.398Z,69.97
2019-03-31T23:26:18.767Z,68.30
2019-03-31T23:28:49.320Z,67.97
2019-03-31T23:31:20.457Z,71.97
2019-03-31T23:33:49.923Z,73.07
2019-03-31T23:36:19.292Z,77.07
2019-03-31T23:38:48.747Z,73.43
2019-03-31T23:41:19.446Z,76.63
2019-03-31T23:43:48.851Z,76.83
2019-03-31T23:46:20.246Z,77.77
2019-03-31T23:48:50.764Z,76.60
2019-03-31T23:51:21.484Z,77.13
2019-03-31T23:53:51.293Z,85.70
2019-03-31T23:56:22.505Z,83.90
2019-03-31T23:58:51.933Z,87.10
